createdAt,value
2022-07-30T00:01:39.627Z,97.91
2022-07-30T00:04:06.123Z,97.54
2022-07-30T00:06:32.846Z,97.85
2022-07-30T00:08:59.494Z,98.04
2022-07-30T00:11:28.060Z,98.78
2022-07-30T00:13:54.974Z,98.86
2022-07-30T00:16:21.725Z,99.78
2022-07-30T00:18:48.208Z,99.98
2022-07-30T00:21:34.577Z,99.69
2022-07-30T00:24:02.446Z,100.00
2022-07-30T00:26:29.161Z,100.00
2022-07-30T00:28:55.559Z,100.00
2022-07-30T00:31:22.082Z,100.00
2022-07-30T00:33:48.530Z,100.00
2022-07-30T00:36:14.903Z,100.00
2022-07-30T00:38:41.268Z,100.00
2022-07-30T00:41:07.745Z,100.00
2022-07-30T00:43:34.166Z,100.00
2022-07-30T00:46:00.741Z,100.00
2022-07-30T00:48:27.257Z,100.00
2022-07-30T00:50:53.612Z,100.00
2022-07-30T00:53:19.996Z,100.00
2022-07-30T00:55:46.399Z,100.00
2022-07-30T00:58:12.814Z,100.00
2022-07-30T01:00:39.223Z,100.00
2022-07-30T01:03:05.972Z,100.00
2022-07-30T01:05:32.778Z,100.00
2022-07-30T01:07:59.168Z,100.00
2022-07-30T01:10:25.727Z,100.00
2022-07-30T01:12:52.848Z,100.00
2022-07-30T01:15:20.014Z,100.00
2022-07-30T01:17:52.909Z,100.00
2022-07-30T01:20:27.007Z,100.00
2022-07-30T01:23:25.090Z,100.00
2022-07-30T01:25:56.910Z,100.00
2022-07-30T01:28:38.567Z,100.00
2022-07-30T01:31:06.934Z,100.00
2022-07-30T01:33:37.233Z,100.00
2022-07-30T01:36:06.959Z,100.00
2022-07-30T01:38:35.072Z,100.00
2022-07-30T01:41:03.697Z,100.00
2022-07-30T01:43:32.825Z,100.00
2022-07-30T01:46:02.481Z,100.00
2022-07-30T01:48:30.170Z,100.00
2022-07-30T01:51:00.569Z,100.00
2022-07-30T01:53:29.612Z,100.00
2022-07-30T01:55:57.525Z,100.00
2022-07-30T01:58:27.958Z,100.00
2022-07-30T02:00:56.574Z,100.00
2022-07-30T02:03:23.133Z,100.00
2022-07-30T02:06:01.497Z,100.00
2022-07-30T02:08:55.221Z,100.00
2022-07-30T02:11:40.732Z,100.00
2022-07-30T02:14:29.296Z,100.00
2022-07-30T02:16:58.711Z,100.00
2022-07-30T02:19:34.300Z,100.00
2022-07-30T02:22:08.632Z,100.00
2022-07-30T02:24:37.658Z,100.00
2022-07-30T02:27:15.297Z,100.00
2022-07-30T02:29:44.176Z,100.00
2022-07-30T02:32:14.573Z,100.00
2022-07-30T02:34:43.178Z,100.00
2022-07-30T02:37:12.545Z,100.00
2022-07-30T02:39:41.427Z,100.00
2022-07-30T02:42:09.101Z,100.00
2022-07-30T02:44:38.473Z,100.00
2022-07-30T02:47:06.421Z,100.00
2022-07-30T02:49:35.641Z,100.00
2022-07-30T02:52:03.209Z,100.00
2022-07-30T02:54:31.478Z,100.00
2022-07-30T02:57:01.314Z,100.00
2022-07-30T02:59:30.067Z,100.00
2022-07-30T03:01:57.747Z,100.00
2022-07-30T03:04:25.815Z,100.00
2022-07-30T03:06:54.491Z,100.00
2022-07-30T03:09:21.670Z,100.00
2022-07-30T03:11:52.548Z,100.00
2022-07-30T03:14:19.157Z,100.00
2022-07-30T03:16:51.642Z,100.00
2022-07-30T03:19:22.976Z,100.00
2022-07-30T03:21:50.464Z,100.00
2022-07-30T03:24:19.050Z,100.00
2022-07-30T03:26:46.923Z,100.00
2022-07-30T03:29:14.902Z,100.00
2022-07-30T03:31:42.485Z,100.00
2022-07-30T03:34:12.782Z,100.00
2022-07-30T03:36:41.621Z,100.00
2022-07-30T03:39:08.875Z,100.00
2022-07-30T03:41:36.973Z,100.00
2022-07-30T03:44:05.880Z,100.00
2022-07-30T03:46:34.969Z,100.00
2022-07-30T03:49:01.959Z,100.00
2022-07-30T03:51:32.839Z,100.00
2022-07-30T03:54:00.660Z,100.00
2022-07-30T03:56:27.358Z,100.00
2022-07-30T03:58:53.842Z,100.00
2022-07-30T04:01:24.930Z,100.00
2022-07-30T04:03:51.511Z,100.00
2022-07-30T04:06:18.312Z,100.00
2022-07-30T04:08:44.678Z,100.00
2022-07-30T04:11:11.063Z,100.00
2022-07-30T04:13:37.422Z,100.00
2022-07-30T04:16:39.998Z,100.00
2022-07-30T04:19:09.460Z,100.00
2022-07-30T04:21:37.634Z,100.00
2022-07-30T04:24:05.826Z,100.00
2022-07-30T04:26:35.527Z,100.00
2022-07-30T04:29:04.113Z,100.00
2022-07-30T04:31:40.670Z,100.00
2022-07-30T04:34:08.326Z,100.00
2022-07-30T04:36:37.111Z,100.00
2022-07-30T04:39:03.796Z,100.00
2022-07-30T04:41:48.664Z,100.00
2022-07-30T04:44:17.907Z,100.00
2022-07-30T04:46:44.578Z,100.00
2022-07-30T04:49:12.936Z,100.00
2022-07-30T04:51:40.904Z,100.00
2022-07-30T04:54:15.488Z,100.00
2022-07-30T04:56:50.192Z,100.00
2022-07-30T04:59:28.121Z,100.00
2022-07-30T05:01:57.339Z,100.00
2022-07-30T05:04:25.298Z,100.00
2022-07-30T05:06:52.505Z,100.00
2022-07-30T05:09:19.301Z,100.00
2022-07-30T05:11:52.977Z,100.00
2022-07-30T05:14:20.564Z,96.90
2022-07-30T05:16:47.219Z,93.28
2022-07-30T05:19:13.661Z,92.90
2022-07-30T05:21:40.082Z,93.31
2022-07-30T05:24:07.095Z,94.59
2022-07-30T05:26:33.540Z,97.34
2022-07-30T05:29:00.038Z,99.71
2022-07-30T05:31:26.513Z,100.00
2022-07-30T05:33:58.258Z,100.00
2022-07-30T05:36:26.786Z,100.00
2022-07-30T05:38:53.243Z,100.00
2022-07-30T05:41:31.913Z,100.00
2022-07-30T05:43:59.902Z,100.00
2022-07-30T05:46:26.414Z,100.00
2022-07-30T05:48:53.049Z,100.00
2022-07-30T05:51:20.804Z,100.00
2022-07-30T05:53:47.584Z,100.00
2022-07-30T05:56:17.174Z,100.00
2022-07-30T05:58:43.642Z,100.00
2022-07-30T06:01:10.163Z,100.00
2022-07-30T06:03:38.384Z,100.00
2022-07-30T06:06:06.967Z,100.00
2022-07-30T06:08:33.454Z,100.00
2022-07-30T06:10:59.837Z,100.00
2022-07-30T06:13:26.235Z,100.00
2022-07-30T06:15:52.785Z,100.00
2022-07-30T06:18:19.277Z,100.00
2022-07-30T06:20:51.656Z,100.00
2022-07-30T06:23:18.437Z,100.00
2022-07-30T06:25:44.905Z,100.00
2022-07-30T06:28:35.945Z,100.00
2022-07-30T06:30:57.797Z,100.00
2022-07-30T06:33:24.364Z,100.00
2022-07-30T06:35:51.027Z,100.00
2022-07-30T06:38:17.542Z,100.00
2022-07-30T06:40:43.889Z,100.00
2022-07-30T06:43:10.264Z,100.00
2022-07-30T06:45:36.691Z,100.00
2022-07-30T06:48:03.256Z,100.00
2022-07-30T06:50:29.637Z,97.09
2022-07-30T06:52:56.097Z,93.65
2022-07-30T06:55:22.549Z,92.35
2022-07-30T06:57:49.002Z,91.12
2022-07-30T07:00:15.712Z,91.15
2022-07-30T07:02:42.759Z,89.31
2022-07-30T07:05:09.691Z,88.91
2022-07-30T07:07:41.896Z,88.63
2022-07-30T07:10:10.162Z,87.10
2022-07-30T07:12:36.686Z,85.06
2022-07-30T07:15:03.723Z,84.74
2022-07-30T07:17:30.065Z,82.64
2022-07-30T07:19:59.753Z,83.72
2022-07-30T07:22:28.388Z,82.39
2022-07-30T07:24:54.786Z,81.11
2022-07-30T07:27:21.202Z,80.72
2022-07-30T07:30:01.827Z,80.34
2022-07-30T07:32:31.704Z,81.11
2022-07-30T07:34:58.081Z,79.29
2022-07-30T07:37:24.536Z,78.02
2022-07-30T07:39:50.958Z,77.32
2022-07-30T07:42:17.325Z,76.82
2022-07-30T07:44:43.979Z,77.34
2022-07-30T07:47:10.379Z,77.99
2022-07-30T07:49:36.816Z,76.50
2022-07-30T07:52:03.471Z,76.67
2022-07-30T07:54:29.877Z,76.26
2022-07-30T07:56:57.364Z,76.94
2022-07-30T07:59:27.723Z,76.37
2022-07-30T08:02:03.331Z,75.25
2022-07-30T08:04:30.652Z,75.71
2022-07-30T08:06:57.022Z,75.46
2022-07-30T08:09:23.495Z,75.64
2022-07-30T08:11:49.959Z,75.03
2022-07-30T08:14:16.366Z,72.86
2022-07-30T08:19:09.150Z,72.07
2022-07-30T08:21:35.540Z,70.55
2022-07-30T08:24:01.968Z,69.14
2022-07-30T08:26:28.400Z,69.54
2022-07-30T08:28:54.781Z,67.69
2022-07-30T08:31:21.215Z,65.11
2022-07-30T08:33:47.603Z,65.73
2022-07-30T08:36:14.001Z,66.06
2022-07-30T08:38:40.490Z,64.39
2022-07-30T08:41:07.574Z,64.34
2022-07-30T08:43:35.892Z,64.04
2022-07-30T08:46:05.205Z,66.02
2022-07-30T08:48:33.174Z,68.14
2022-07-30T08:51:00.134Z,66.48
2022-07-30T08:53:27.821Z,66.43
2022-07-30T08:55:58.617Z,66.54
2022-07-30T08:58:31.401Z,66.80
2022-07-30T09:00:58.057Z,65.06
2022-07-30T09:03:34.815Z,64.73
2022-07-30T09:06:02.516Z,66.31
2022-07-30T09:08:29.260Z,64.89
2022-07-30T09:10:55.774Z,64.59
2022-07-30T09:13:28.410Z,63.78
2022-07-30T09:15:55.603Z,62.28
2022-07-30T09:18:44.327Z,62.19
2022-07-30T09:21:29.962Z,60.70
2022-07-30T09:24:07.182Z,58.46
2022-07-30T09:26:52.850Z,58.06
2022-07-30T09:29:24.779Z,54.58
2022-07-30T09:31:56.517Z,56.02
2022-07-30T09:34:29.896Z,56.29
2022-07-30T09:36:58.506Z,55.38
2022-07-30T09:39:32.107Z,53.84
2022-07-30T09:41:59.140Z,52.50
2022-07-30T09:44:28.081Z,53.15
2022-07-30T09:46:54.496Z,53.11
2022-07-30T09:49:23.603Z,52.60
2022-07-30T09:51:56.023Z,54.42
2022-07-30T09:54:24.146Z,51.78
2022-07-30T09:57:07.397Z,50.94
2022-07-30T09:59:53.288Z,50.91
2022-07-30T10:02:19.953Z,51.25
2022-07-30T10:04:46.856Z,51.97
2022-07-30T10:07:24.835Z,50.86
2022-07-30T10:09:53.320Z,48.85
2022-07-30T10:12:20.572Z,50.59
2022-07-30T10:14:53.652Z,49.62
2022-07-30T10:17:22.178Z,49.23
2022-07-30T10:19:49.078Z,48.40
2022-07-30T10:22:16.956Z,47.49
2022-07-30T10:24:45.659Z,46.88
2022-07-30T10:27:12.683Z,46.91
2022-07-30T10:29:42.669Z,48.55
2022-07-30T10:32:10.519Z,48.05
2022-07-30T10:34:38.260Z,49.36
2022-07-30T10:37:10.980Z,51.16
2022-07-30T10:40:08.525Z,51.75
2022-07-30T10:42:57.129Z,51.27
2022-07-30T10:45:46.379Z,50.26
2022-07-30T10:48:13.900Z,49.42
2022-07-30T10:50:57.938Z,47.63
2022-07-30T10:53:48.540Z,46.13
2022-07-30T10:56:25.465Z,47.06
2022-07-30T10:59:08.719Z,48.78
2022-07-30T11:01:50.013Z,46.59
2022-07-30T11:04:25.818Z,47.63
2022-07-30T11:07:24.048Z,48.94
2022-07-30T11:10:08.857Z,47.33
2022-07-30T11:12:42.077Z,46.50
2022-07-30T11:15:19.107Z,45.94
2022-07-30T11:18:13.033Z,38.91
2022-07-30T11:20:43.236Z,41.18
2022-07-30T11:23:24.380Z,42.35
2022-07-30T11:25:54.512Z,41.47
2022-07-30T11:28:41.052Z,40.18
2022-07-30T11:32:07.567Z,42.88
2022-07-30T11:34:20.088Z,41.09
2022-07-30T11:37:18.964Z,42.61
2022-07-30T11:39:57.919Z,42.91
2022-07-30T11:42:28.785Z,40.72
2022-07-30T11:45:16.822Z,40.11
2022-07-30T11:47:48.097Z,38.90
2022-07-30T11:50:21.222Z,39.58
2022-07-30T11:52:55.685Z,40.65
2022-07-30T11:55:27.551Z,40.83
2022-07-30T11:57:55.405Z,41.38
2022-07-30T12:00:23.005Z,39.75
2022-07-30T12:05:25.134Z,40.07
2022-07-30T12:07:56.021Z,39.89
2022-07-30T12:10:26.849Z,39.76
2022-07-30T12:13:07.925Z,39.68
2022-07-30T12:15:36.730Z,39.88
2022-07-30T12:18:25.313Z,39.06
2022-07-30T12:20:54.797Z,39.05
2022-07-30T12:23:25.632Z,37.44
2022-07-30T12:25:52.927Z,39.09
2022-07-30T12:28:24.521Z,38.90
2022-07-30T12:30:52.693Z,38.51
2022-07-30T12:33:19.959Z,37.68
2022-07-30T12:35:58.333Z,37.47
2022-07-30T12:38:26.954Z,37.89
2022-07-30T12:41:04.803Z,37.65
2022-07-30T12:43:53.872Z,36.13
2022-07-30T12:46:24.423Z,36.18
2022-07-30T12:49:01.179Z,36.17
2022-07-30T12:51:52.047Z,36.64
2022-07-30T12:54:19.840Z,35.50
2022-07-30T12:57:06.549Z,35.69
2022-07-30T12:59:34.835Z,38.64
2022-07-30T13:02:01.489Z,37.47
2022-07-30T13:04:28.525Z,38.13
2022-07-30T13:07:10.590Z,38.41
2022-07-30T13:09:38.229Z,39.34
2022-07-30T13:12:05.054Z,38.94
2022-07-30T13:14:32.316Z,38.22
2022-07-30T13:16:58.992Z,38.18
2022-07-30T13:19:26.962Z,36.23
2022-07-30T13:21:53.502Z,36.80
2022-07-30T13:24:20.470Z,36.54
2022-07-30T13:26:47.211Z,37.72
2022-07-30T13:29:14.033Z,38.12
2022-07-30T13:31:42.355Z,38.40
2022-07-30T13:34:10.702Z,38.72
2022-07-30T13:36:37.096Z,38.72
2022-07-30T13:39:03.680Z,39.80
2022-07-30T13:41:30.450Z,39.10
2022-07-30T13:43:56.820Z,39.43
2022-07-30T13:46:23.218Z,38.63
2022-07-30T13:48:49.847Z,39.22
2022-07-30T13:51:25.953Z,38.14
2022-07-30T13:53:52.343Z,38.03
2022-07-30T13:56:19.813Z,38.98
2022-07-30T13:58:46.426Z,37.37
2022-07-30T14:01:17.651Z,36.47
2022-07-30T14:03:49.343Z,36.07
2022-07-30T14:06:18.427Z,36.33
2022-07-30T14:08:44.999Z,37.54
2022-07-30T14:11:11.418Z,37.66
2022-07-30T14:13:38.029Z,37.79
2022-07-30T14:16:08.182Z,39.05
2022-07-30T14:18:44.498Z,38.36
2022-07-30T14:21:10.911Z,37.14
2022-07-30T14:23:37.399Z,37.10
2022-07-30T14:26:03.874Z,35.90
2022-07-30T14:28:30.296Z,37.02
2022-07-30T14:30:56.757Z,37.61
2022-07-30T14:33:23.238Z,38.02
2022-07-30T14:35:49.589Z,36.37
2022-07-30T14:38:16.786Z,37.31
2022-07-30T14:40:43.177Z,38.23
2022-07-30T14:43:09.583Z,38.45
2022-07-30T14:45:36.595Z,38.70
2022-07-30T14:48:03.292Z,36.47
2022-07-30T14:50:29.667Z,36.35
2022-07-30T14:52:56.173Z,35.75
2022-07-30T14:55:22.586Z,36.63
2022-07-30T14:57:49.044Z,37.08
2022-07-30T15:00:16.202Z,36.11
2022-07-30T15:02:42.664Z,36.40
2022-07-30T15:05:09.366Z,36.18
2022-07-30T15:07:35.763Z,36.58
2022-07-30T15:10:02.528Z,36.77
2022-07-30T15:12:29.131Z,36.91
2022-07-30T15:14:55.616Z,36.29
2022-07-30T15:17:22.254Z,37.41
2022-07-30T15:19:50.236Z,37.23
2022-07-30T15:22:17.909Z,37.93
2022-07-30T15:24:44.352Z,36.78
2022-07-30T15:27:10.794Z,36.02
2022-07-30T15:29:37.225Z,37.38
2022-07-30T15:32:04.026Z,38.00
2022-07-30T15:34:34.160Z,37.05
2022-07-30T15:37:02.538Z,36.34
2022-07-30T15:39:32.891Z,36.69
2022-07-30T15:42:01.788Z,36.84
2022-07-30T15:44:29.121Z,37.31
2022-07-30T15:46:55.492Z,37.79
2022-07-30T15:49:22.173Z,38.95
2022-07-30T15:51:48.807Z,38.67
2022-07-30T15:54:22.426Z,38.59
2022-07-30T15:56:49.564Z,38.67
2022-07-30T15:59:16.299Z,38.39
2022-07-30T16:01:44.018Z,37.28
2022-07-30T16:04:20.025Z,37.61
2022-07-30T16:06:48.198Z,37.84
2022-07-30T16:09:15.829Z,38.34
2022-07-30T16:11:42.929Z,39.02
2022-07-30T16:14:09.490Z,39.12
2022-07-30T16:16:35.894Z,38.65
2022-07-30T16:19:02.268Z,38.22
2022-07-30T16:21:28.693Z,38.25
2022-07-30T16:23:55.162Z,37.27
2022-07-30T16:26:21.625Z,38.23
2022-07-30T16:28:48.221Z,38.78
2022-07-30T16:31:14.731Z,38.95
2022-07-30T16:33:41.418Z,39.97
2022-07-30T16:36:08.036Z,40.83
2022-07-30T16:38:34.541Z,40.67
2022-07-30T16:41:00.903Z,41.27
2022-07-30T16:43:27.270Z,40.34
2022-07-30T16:45:53.709Z,40.48
2022-07-30T16:48:20.131Z,40.76
2022-07-30T16:50:46.669Z,41.78
2022-07-30T16:53:14.412Z,41.49
2022-07-30T16:55:42.058Z,41.64
2022-07-30T16:58:08.829Z,42.48
2022-07-30T17:00:35.789Z,42.48
2022-07-30T17:03:02.345Z,42.40
2022-07-30T17:05:29.010Z,42.56
2022-07-30T17:07:55.706Z,42.65
2022-07-30T17:10:23.550Z,42.27
2022-07-30T17:12:53.365Z,41.34
2022-07-30T17:15:19.775Z,42.12
2022-07-30T17:17:46.190Z,42.88
2022-07-30T17:20:14.369Z,42.97
2022-07-30T17:22:43.074Z,43.64
2022-07-30T17:25:09.998Z,44.36
2022-07-30T17:27:37.352Z,43.41
2022-07-30T17:30:04.905Z,43.57
2022-07-30T17:32:31.568Z,44.27
2022-07-30T17:34:58.030Z,43.97
2022-07-30T17:37:24.581Z,43.88
2022-07-30T17:40:26.947Z,44.01
2022-07-30T17:42:38.443Z,44.98
2022-07-30T17:45:06.297Z,44.84
2022-07-30T17:47:32.735Z,44.48
2022-07-30T17:49:59.630Z,45.48
2022-07-30T17:52:26.759Z,45.69
2022-07-30T17:54:53.654Z,44.07
2022-07-30T17:57:20.836Z,44.59
2022-07-30T17:59:47.354Z,44.47
2022-07-30T18:02:14.154Z,44.19
2022-07-30T18:04:40.633Z,43.85
2022-07-30T18:07:07.052Z,44.48
2022-07-30T18:09:38.875Z,44.59
2022-07-30T18:12:06.857Z,44.72
2022-07-30T18:14:33.389Z,45.17
2022-07-30T18:17:00.469Z,45.45
2022-07-30T18:19:27.237Z,46.29
2022-07-30T18:21:54.109Z,46.40
2022-07-30T18:24:21.110Z,47.28
2022-07-30T18:26:51.457Z,47.19
2022-07-30T18:29:17.914Z,47.35
2022-07-30T18:31:44.352Z,47.43
2022-07-30T18:34:11.709Z,47.57
2022-07-30T18:36:38.123Z,47.58
2022-07-30T18:39:04.717Z,48.41
2022-07-30T18:41:31.139Z,48.40
2022-07-30T18:43:57.541Z,48.17
2022-07-30T18:46:26.329Z,48.20
2022-07-30T18:48:52.915Z,48.08
2022-07-30T18:51:19.347Z,47.57
2022-07-30T18:53:46.330Z,47.59
2022-07-30T18:56:12.755Z,47.53
2022-07-30T18:58:39.129Z,47.70
2022-07-30T19:01:05.676Z,48.13
2022-07-30T19:03:32.243Z,48.61
2022-07-30T19:05:58.676Z,49.09
2022-07-30T19:08:25.068Z,49.14
2022-07-30T19:10:51.720Z,49.90
2022-07-30T19:13:18.545Z,49.99
2022-07-30T19:15:45.044Z,50.27
2022-07-30T19:18:11.547Z,50.19
2022-07-30T19:20:38.000Z,50.42
2022-07-30T19:23:07.679Z,50.09
2022-07-30T19:25:35.763Z,50.43
2022-07-30T19:28:03.212Z,50.68
2022-07-30T19:30:30.065Z,51.11
2022-07-30T19:33:03.184Z,51.04
2022-07-30T19:35:30.064Z,51.32
2022-07-30T19:37:56.468Z,51.41
2022-07-30T19:40:23.227Z,51.67
2022-07-30T19:42:55.978Z,52.57
2022-07-30T19:45:23.130Z,53.45
2022-07-30T19:47:49.550Z,54.00
2022-07-30T19:50:16.058Z,53.30
2022-07-30T19:52:51.354Z,52.56
2022-07-30T19:55:30.777Z,52.07
2022-07-30T19:58:01.945Z,52.52
2022-07-30T20:00:29.913Z,52.50
2022-07-30T20:02:56.960Z,52.40
2022-07-30T20:05:25.055Z,52.67
2022-07-30T20:07:52.032Z,53.02
2022-07-30T20:10:19.557Z,54.06
2022-07-30T20:12:49.115Z,55.05
2022-07-30T20:15:16.235Z,55.90
2022-07-30T20:17:42.770Z,56.04
2022-07-30T20:20:10.147Z,56.34
2022-07-30T20:22:36.597Z,55.81
2022-07-30T20:25:05.871Z,55.96
2022-07-30T20:27:38.499Z,56.18
2022-07-30T20:30:07.059Z,56.55
2022-07-30T20:32:34.392Z,56.59
2022-07-30T20:35:00.824Z,56.29
2022-07-30T20:37:27.867Z,56.54
2022-07-30T20:39:55.000Z,56.07
2022-07-30T20:42:23.839Z,56.60
2022-07-30T20:44:53.177Z,56.62
2022-07-30T20:47:38.538Z,57.27
2022-07-30T20:50:10.330Z,57.79
2022-07-30T20:52:40.844Z,57.79
2022-07-30T20:55:16.291Z,58.51
2022-07-30T20:57:56.358Z,58.45
2022-07-30T21:00:26.283Z,58.23
2022-07-30T21:02:52.692Z,59.07
2022-07-30T21:05:19.801Z,59.54
2022-07-30T21:07:47.134Z,60.23
2022-07-30T21:13:03.551Z,60.66
2022-07-30T21:15:36.052Z,60.48
2022-07-30T21:18:03.057Z,60.27
2022-07-30T21:20:31.167Z,60.97
2022-07-30T21:23:11.300Z,62.08
2022-07-30T21:26:00.908Z,62.57
2022-07-30T21:28:28.171Z,62.40
2022-07-30T21:30:54.856Z,62.68
2022-07-30T21:33:23.945Z,62.97
2022-07-30T21:35:56.754Z,63.55
2022-07-30T21:38:26.268Z,64.08
2022-07-30T21:40:52.646Z,64.57
2022-07-30T21:43:29.693Z,64.45
2022-07-30T21:45:58.151Z,64.49
2022-07-30T21:48:25.388Z,66.01
2022-07-30T21:50:54.151Z,65.16
2022-07-30T21:53:29.713Z,65.30
2022-07-30T21:56:07.162Z,65.05
2022-07-30T21:58:33.998Z,64.89
2022-07-30T22:01:17.570Z,64.70
2022-07-30T22:04:03.732Z,65.58
2022-07-30T22:06:37.674Z,66.27
2022-07-30T22:09:18.260Z,66.60
2022-07-30T22:11:52.527Z,66.94
2022-07-30T22:14:18.935Z,66.24
2022-07-30T22:16:46.471Z,67.24
2022-07-30T22:19:14.477Z,67.24
2022-07-30T22:21:42.312Z,67.61
2022-07-30T22:24:08.838Z,68.04
2022-07-30T22:26:35.230Z,68.04
2022-07-30T22:29:01.682Z,67.93
2022-07-30T22:31:28.098Z,68.01
2022-07-30T22:34:05.803Z,68.56
2022-07-30T22:36:37.856Z,68.80
2022-07-30T22:39:04.307Z,69.24
2022-07-30T22:41:35.714Z,68.85
2022-07-30T22:44:03.408Z,69.60
2022-07-30T22:46:31.937Z,69.53
2022-07-30T22:48:59.224Z,69.54
2022-07-30T22:51:25.861Z,69.47
2022-07-30T22:54:12.776Z,69.15
2022-07-30T22:56:41.332Z,68.92
2022-07-30T22:59:07.770Z,68.98
2022-07-30T23:01:34.354Z,69.34
2022-07-30T23:04:01.577Z,69.56
2022-07-30T23:06:28.271Z,70.11
2022-07-30T23:08:56.657Z,70.67
2022-07-30T23:11:23.082Z,70.06
2022-07-30T23:12:26.824Z,59.85
2022-07-30T23:13:49.584Z,70.70
2022-07-30T23:16:18.078Z,70.92
2022-07-30T23:18:44.473Z,71.56
2022-07-30T23:21:11.147Z,72.33
2022-07-30T23:23:37.541Z,72.17
2022-07-30T23:26:04.753Z,72.85
2022-07-30T23:28:31.203Z,73.95
2022-07-30T23:30:57.756Z,74.76
2022-07-30T23:33:24.117Z,75.23
2022-07-30T23:35:51.693Z,76.35
2022-07-30T23:38:18.282Z,76.35
2022-07-30T23:40:44.804Z,76.87
2022-07-30T23:43:11.179Z,76.70
2022-07-30T23:45:37.539Z,75.82
2022-07-30T23:48:04.138Z,75.70
2022-07-30T23:50:31.502Z,76.02
2022-07-30T23:52:58.013Z,76.02
2022-07-30T23:55:24.383Z,74.84
2022-07-30T23:57:51.928Z,75.22
